Time;durP1;ratioP1;P1;durP2;ratioP2;P2;SDS_P1;SDS_P2;PMS_P1;PMS_P2;Temp;Humidity;BMP_temperature;BMP_pressure;BME280_temperature;BME280_humidity;BME280_pressure;Samples;Min_cycle;Max_cycle;Signal;HPM_P1;HPM_P2
2022/04/26 03:37:53;;;;;;;20.97;18.87;;;12.80;99.90;;;;;;5077570;28;20458;-77
2022/04/26 03:40:18;;;;;;;20.30;17.47;;;12.60;99.90;;;;;;5077678;28;20416;-78
2022/04/26 03:42:44;;;;;;;19.60;17.70;;;12.60;99.90;;;;;;5059732;28;20191;-77
2022/04/26 03:45:09;;;;;;;21.77;19.53;;;11.90;99.90;;;;;;5076579;28;20197;-77
2022/04/26 03:47:35;;;;;;;24.40;21.80;;;11.90;99.90;;;;;;5106487;28;20169;-77
2022/04/26 03:50:01;;;;;;;21.87;19.77;;;12.10;99.90;;;;;;5117389;28;20162;-77
2022/04/26 03:52:26;;;;;;;22.00;19.80;;;12.20;99.90;;;;;;5117010;28;20181;-77
2022/04/26 03:54:52;;;;;;;24.53;22.13;;;12.30;99.90;;;;;;5117598;28;20539;-77
2022/04/26 03:57:17;;;;;;;23.30;21.00;;;12.30;99.90;;;;;;5117363;28;20189;-77
2022/04/26 03:59:43;;;;;;;25.90;23.30;;;12.30;99.90;;;;;;5117056;28;20175;-77
2022/04/26 04:02:08;;;;;;;22.80;20.60;;;12.40;99.90;;;;;;5115285;28;20175;-77
2022/04/26 04:04:34;;;;;;;22.90;20.70;;;12.40;99.90;;;;;;5117183;28;20643;-77
2022/04/26 04:07:00;;;;;;;30.07;26.90;;;12.50;99.90;;;;;;5098675;28;20171;-77
2022/04/26 04:09:25;;;;;;;20.60;18.40;;;12.50;99.90;;;;;;5116794;28;20190;-77
2022/04/26 04:11:52;;;;;;;21.77;19.60;;;12.50;99.90;;;;;;5116080;28;20237;-77
2022/04/26 04:14:18;;;;;;;23.30;21.00;;;12.60;99.90;;;;;;5117419;28;20202;-77
2022/04/26 04:16:44;;;;;;;22.40;20.10;;;12.60;99.90;;;;;;5116820;28;20403;-75
2022/04/26 04:19:18;;;;;;;20.53;18.37;;;12.60;99.90;;;;;;5114904;28;20226;-77
2022/04/26 04:21:45;;;;;;;23.10;20.80;;;12.70;99.90;;;;;;5112679;28;20177;-77
2022/04/26 04:24:13;;;;;;;24.83;22.23;;;12.70;99.90;;;;;;5081898;22;20498;-70
2022/04/26 04:26:39;;;;;;;19.60;17.80;;;12.70;99.90;;;;;;5071081;28;20470;-70
2022/04/26 04:29:05;;;;;;;20.60;18.50;;;12.70;99.90;;;;;;5074986;28;20397;-69
2022/04/26 04:31:32;;;;;;;22.40;20.23;;;12.40;99.90;;;;;;5072433;28;20397;-70
2022/04/26 04:33:58;;;;;;;21.90;19.60;;;12.40;99.90;;;;;;5062987;28;20432;-68
2022/04/26 04:36:23;;;;;;;16.70;15.03;;;12.40;99.90;;;;;;5054804;28;20529;-69
2022/04/26 04:38:49;;;;;;;18.90;16.10;;;12.30;99.90;;;;;;5042856;28;20593;-68
2022/04/26 04:41:15;;;;;;;18.73;16.80;;;12.40;99.90;;;;;;5060820;28;20209;-70
2022/04/26 04:43:40;;;;;;;16.30;14.70;;;12.40;99.90;;;;;;5031687;28;20260;-68
2022/04/26 04:46:06;;;;;;;14.03;12.63;;;12.40;99.90;;;;;;5049056;28;20421;-71
2022/04/26 04:48:31;;;;;;;17.23;15.63;;;12.50;99.90;;;;;;5053399;28;20534;-69
2022/04/26 04:50:57;;;;;;;18.37;16.70;;;12.50;99.90;;;;;;5032462;28;20190;-69
2022/04/26 04:53:23;;;;;;;17.23;15.50;;;12.60;99.90;;;;;;5052711;28;20735;-71
2022/04/26 04:55:48;;;;;;;17.27;15.60;;;12.70;99.90;;;;;;5053249;28;20227;-70
2022/04/26 04:58:14;;;;;;;15.97;14.33;;;12.70;99.90;;;;;;5054393;28;20667;-70
2022/04/26 05:00:39;;;;;;;17.03;15.30;;;12.60;99.90;;;;;;5058158;28;20282;-68
2022/04/26 05:03:05;;;;;;;17.80;16.03;;;12.50;99.90;;;;;;5054122;28;20205;-70
2022/04/26 05:05:31;;;;;;;18.03;16.33;;;12.60;99.90;;;;;;5056320;28;20622;-71
2022/04/26 05:07:58;;;;;;;18.67;16.87;;;12.60;99.90;;;;;;5059097;28;20205;-70
2022/04/26 05:10:24;;;;;;;19.80;17.90;;;12.70;99.90;;;;;;5045971;28;20311;-73
2022/04/26 05:12:50;;;;;;;18.10;16.30;;;12.70;99.90;;;;;;5054822;28;20419;-69
2022/04/26 05:15:15;;;;;;;21.63;19.33;;;12.70;99.90;;;;;;5064837;28;20427;-71
2022/04/26 05:17:41;;;;;;;20.07;18.13;;;12.80;99.90;;;;;;5050825;28;20227;-71
2022/04/26 05:20:08;;;;;;;19.40;17.47;;;12.80;99.90;;;;;;5049213;28;20226;-69
2022/04/26 05:24:53;;;;;;;18.03;16.33;;;12.80;99.90;;;;;;5064592;28;20189;-69
2022/04/26 05:25:20;;;;;;;22.40;20.20;;;12.80;99.90;;;;;;5045600;28;20473;-69
2022/04/26 05:27:46;;;;;;;18.67;16.87;;;12.80;99.90;;;;;;5049621;28;20468;-71
2022/04/26 05:30:12;;;;;;;19.93;17.83;;;12.70;99.90;;;;;;5046313;28;20279;-69
2022/04/26 05:32:38;;;;;;;20.23;18.17;;;12.70;99.90;;;;;;5063089;28;20683;-70
2022/04/26 05:35:05;;;;;;;21.33;19.30;;;12.70;99.90;;;;;;5057178;28;20452;-69
2022/04/26 05:37:31;;;;;;;19.07;17.20;;;12.80;99.90;;;;;;5059200;28;20428;-69
2022/04/26 05:39:59;;;;;;;20.70;18.67;;;12.80;99.90;;;;;;5034779;28;20519;-69
2022/04/26 05:42:25;;;;;;;21.03;18.93;;;12.80;99.90;;;;;;5054833;28;20420;-67
2022/04/26 05:44:50;;;;;;;19.20;17.30;;;12.90;99.90;;;;;;5055657;28;20445;-69
2022/04/26 05:47:16;;;;;;;20.13;18.30;;;12.90;99.90;;;;;;5036918;28;20202;-67
2022/04/26 05:49:41;;;;;;;20.63;18.57;;;12.80;99.90;;;;;;5047289;28;20183;-68
2022/04/26 05:52:07;;;;;;;17.40;15.70;;;12.80;99.90;;;;;;5059068;28;20177;-71
2022/04/26 05:54:33;;;;;;;20.80;18.63;;;12.60;99.90;;;;;;5055853;28;20675;-70
2022/04/26 05:56:58;;;;;;;19.37;17.47;;;12.40;99.90;;;;;;5027932;28;20179;-70
2022/04/26 05:59:24;;;;;;;17.90;16.20;;;12.40;99.90;;;;;;5051416;28;20631;-72
2022/04/26 06:01:51;;;;;;;15.03;13.50;;;12.50;99.90;;;;;;5064392;28;20207;-70
2022/04/26 06:04:17;;;;;;;18.43;16.57;;;12.60;99.90;;;;;;5053988;28;21109;-69
2022/04/26 06:06:43;;;;;;;20.57;18.60;;;12.60;99.90;;;;;;5034946;28;20794;-70
2022/04/26 06:09:09;;;;;;;21.97;19.70;;;12.70;99.90;;;;;;5063746;28;20400;-72
2022/04/26 06:11:35;;;;;;;20.50;18.40;;;12.70;99.90;;;;;;5064159;28;20170;-71
2022/04/26 06:14:02;;;;;;;18.17;16.47;;;12.80;99.90;;;;;;5063684;28;20262;-73
2022/04/26 06:16:28;;;;;;;20.70;18.70;;;12.80;99.90;;;;;;5049334;28;20932;-68
2022/04/26 06:18:54;;;;;;;20.20;18.30;;;12.80;99.90;;;;;;5042976;28;20443;-71
2022/04/26 06:21:20;;;;;;;22.87;20.53;;;12.90;99.90;;;;;;5043701;28;20553;-69
2022/04/26 06:23:45;;;;;;;22.80;20.47;;;13.00;99.90;;;;;;5055336;28;20461;-71
2022/04/26 06:26:11;;;;;;;17.97;16.27;;;13.00;99.90;;;;;;5056954;28;20547;-72
2022/04/26 06:28:36;;;;;;;22.13;19.93;;;13.00;99.90;;;;;;5057348;28;20174;-71
2022/04/26 06:31:02;;;;;;;18.60;16.80;;;13.00;99.90;;;;;;5048798;28;20287;-70
2022/04/26 06:33:28;;;;;;;21.23;19.23;;;13.10;99.90;;;;;;5051903;28;20331;-70
2022/04/26 06:35:53;;;;;;;18.07;16.30;;;13.00;99.90;;;;;;5049976;28;20548;-70
2022/04/26 06:38:22;;;;;;;18.80;17.00;;;12.90;99.90;;;;;;5029939;28;20176;-69
2022/04/26 06:40:48;;;;;;;17.00;15.40;;;12.90;99.90;;;;;;5050780;28;20169;-71
2022/04/26 06:43:14;;;;;;;18.13;16.50;;;13.00;99.90;;;;;;5047711;28;20432;-70
2022/04/26 06:45:40;;;;;;;20.00;17.77;;;13.00;99.90;;;;;;5047763;28;20456;-70
2022/04/26 06:48:10;;;;;;;19.60;17.60;;;13.20;99.90;;;;;;5059499;28;20286;-71
2022/04/26 06:50:36;;;;;;;18.37;16.47;;;13.20;99.90;;;;;;5063763;28;21407;-70
2022/04/26 06:53:01;;;;;;;17.67;15.97;;;13.20;99.90;;;;;;5066220;28;20427;-72
2022/04/26 06:55:27;;;;;;;20.70;18.63;;;13.20;99.90;;;;;;5052084;28;21092;-70
2022/04/26 06:57:52;;;;;;;19.10;17.30;;;13.20;99.90;;;;;;5059809;28;20186;-69
2022/04/26 07:00:18;;;;;;;18.53;16.83;;;13.10;99.90;;;;;;5049919;28;20560;-70
2022/04/26 07:02:45;;;;;;;17.53;15.83;;;13.00;99.90;;;;;;5054622;28;20185;-68
2022/04/26 07:05:11;;;;;;;14.53;13.23;;;13.00;99.90;;;;;;5054112;28;20301;-71
2022/04/26 07:07:37;;;;;;;16.80;14.93;;;12.90;99.90;;;;;;5054099;28;20431;-69
2022/04/26 07:13:25;;;;;;;15.77;14.30;;;13.00;99.90;;;;;;5061646;28;20478;-71
2022/04/26 07:15:50;;;;;;;16.20;14.70;;;13.10;99.90;;;;;;5057952;28;20420;-72
2022/04/26 07:18:16;;;;;;;18.20;16.40;;;13.10;99.90;;;;;;5060733;28;20185;-70
2022/04/26 07:20:44;;;;;;;14.97;13.57;;;13.00;99.90;;;;;;5063667;28;20896;-69
2022/04/26 07:23:10;;;;;;;13.60;12.40;;;12.90;99.90;;;;;;5054450;28;20214;-70
2022/04/26 07:25:35;;;;;;;16.07;14.57;;;13.20;99.90;;;;;;5062839;28;20794;-72
2022/04/26 07:28:01;;;;;;;14.43;13.20;;;13.30;99.90;;;;;;5060292;28;20416;-69
2022/04/26 07:30:34;;;;;;;15.97;14.37;;;13.50;99.90;;;;;;5066142;28;20543;-71
2022/04/26 07:35:44;;;;;;;14.00;12.80;;;14.00;99.90;;;;;;5063145;28;20432;-71
2022/04/26 07:38:10;;;;;;;11.93;10.83;;;14.20;99.90;;;;;;5042350;28;20906;-69
2022/04/26 07:40:36;;;;;;;12.00;10.90;;;14.00;99.90;;;;;;5057333;28;20179;-71
2022/04/26 07:43:03;;;;;;;9.07;8.20;;;13.70;99.90;;;;;;5055193;28;20795;-71
2022/04/26 07:45:30;;;;;;;9.77;8.87;;;13.60;99.90;;;;;;5062271;28;20191;-69
2022/04/26 07:47:56;;;;;;;10.50;9.60;;;13.40;99.90;;;;;;5062088;28;20508;-70
2022/04/26 07:50:21;;;;;;;11.17;10.27;;;13.10;99.90;;;;;;5057764;28;20502;-69
2022/04/26 07:52:47;;;;;;;10.40;9.40;;;13.10;99.90;;;;;;5059775;28;20238;-71
2022/04/26 07:55:13;;;;;;;11.90;10.90;;;12.90;99.90;;;;;;5057302;28;20178;-71
2022/04/26 07:57:39;;;;;;;12.20;11.20;;;12.80;99.90;;;;;;5056029;28;20538;-71
2022/04/26 08:00:05;;;;;;;10.97;9.90;;;13.10;99.90;;;;;;5059523;28;20482;-69
2022/04/26 08:02:31;;;;;;;13.57;12.27;;;13.00;99.90;;;;;;5044382;28;20196;-69
2022/04/26 08:05:01;;;;;;;11.43;10.53;;;13.20;99.90;;;;;;5054073;28;20460;-70
2022/04/26 08:07:28;;;;;;;10.83;9.87;;;13.00;99.90;;;;;;5048016;28;20277;-72
2022/04/26 08:09:57;;;;;;;10.90;10.00;;;12.90;99.90;;;;;;5041415;28;20881;-70
2022/04/26 08:12:23;;;;;;;9.60;8.70;;;13.00;99.90;;;;;;5059994;28;21704;-70
2022/04/26 08:14:49;;;;;;;9.50;8.63;;;12.90;99.90;;;;;;5037161;28;20523;-68
2022/04/26 08:17:15;;;;;;;11.37;10.27;;;12.70;99.90;;;;;;5052293;28;20697;-67
2022/04/26 08:19:42;;;;;;;11.53;10.43;;;12.70;99.90;;;;;;5052237;28;20175;-69
2022/04/26 08:22:08;;;;;;;9.83;9.03;;;12.80;99.90;;;;;;5062423;28;20795;-70
2022/04/26 08:27:25;;;;;;;10.20;9.30;;;13.00;99.90;;;;;;5052426;28;20546;-67
2022/04/26 08:29:54;;;;;;;10.47;9.57;;;12.90;99.90;;;;;;5045985;28;20410;-70
2022/04/26 08:32:21;;;;;;;9.87;9.03;;;13.00;99.90;;;;;;5035159;28;20784;-69
2022/04/26 08:34:48;;;;;;;11.13;10.00;;;12.90;99.90;;;;;;5052254;28;20428;-68
2022/04/26 08:37:14;;;;;;;9.77;8.93;;;13.10;99.90;;;;;;5065921;28;20476;-69
2022/04/26 08:39:39;;;;;;;9.13;8.27;;;13.40;99.90;;;;;;5055031;28;20406;-68
2022/04/26 08:42:06;;;;;;;12.23;10.87;;;13.50;99.90;;;;;;5057692;28;20217;-68
2022/04/26 08:44:32;;;;;;;10.60;9.70;;;13.70;99.90;;;;;;5064822;28;20197;-69
2022/04/26 08:52:29;;;;;;;10.80;9.70;;;14.30;99.90;;;;;;5056435;28;20407;-67
2022/04/26 08:54:55;;;;;;;9.00;8.20;;;14.20;99.90;;;;;;5049835;28;21325;-71
2022/04/26 08:57:20;;;;;;;9.90;9.00;;;14.30;99.90;;;;;;5050344;28;20421;-70
2022/04/26 08:59:48;;;;;;;11.27;10.17;;;14.20;99.90;;;;;;5057119;28;20180;-67
2022/04/26 09:02:18;;;;;;;11.10;10.00;;;14.40;99.90;;;;;;5053670;28;20189;-69
2022/04/26 09:04:45;;;;;;;11.30;10.07;;;14.20;99.90;;;;;;5048814;28;20468;-69
2022/04/26 09:07:12;;;;;;;10.53;9.43;;;13.80;99.90;;;;;;5033557;28;20424;-68
2022/04/26 09:09:39;;;;;;;10.50;9.43;;;13.50;99.90;;;;;;5051623;28;20458;-67
2022/04/26 09:12:10;;;;;;;10.90;9.67;;;13.50;99.90;;;;;;5051823;28;20609;-71
2022/04/26 09:14:41;;;;;;;9.50;8.60;;;13.50;99.90;;;;;;5044798;28;21389;-69
2022/04/26 09:17:12;;;;;;;9.30;8.30;;;13.50;99.90;;;;;;5053608;28;20405;-68
2022/04/26 09:19:53;;;;;;;9.93;9.07;;;13.40;99.90;;;;;;5030936;28;20433;-68
2022/04/26 09:22:21;;;;;;;9.97;9.07;;;13.60;99.90;;;;;;5062407;28;20934;-69
2022/04/26 09:24:59;;;;;;;9.63;8.73;;;13.40;99.90;;;;;;5057201;28;20468;-68
2022/04/26 09:27:27;;;;;;;9.33;8.40;;;13.50;99.90;;;;;;5059757;28;20416;-67
2022/04/26 09:29:52;;;;;;;10.87;8.50;;;13.40;99.90;;;;;;5061005;28;20418;-68
2022/04/26 09:32:18;;;;;;;8.97;8.07;;;13.50;99.90;;;;;;5054200;28;20466;-69
2022/04/26 09:34:44;;;;;;;9.77;8.93;;;13.70;99.90;;;;;;5064166;28;20229;-68
2022/04/26 09:37:11;;;;;;;8.33;7.60;;;14.00;99.90;;;;;;5059430;28;20656;-69
2022/04/26 09:39:39;;;;;;;10.80;8.80;;;14.30;99.90;;;;;;5059898;28;20419;-68
2022/04/26 09:42:05;;;;;;;10.47;9.47;;;14.30;99.90;;;;;;5031557;28;20420;-70
2022/04/26 09:44:33;;;;;;;8.83;7.97;;;14.30;99.90;;;;;;5047676;28;20458;-69
2022/04/26 09:46:58;;;;;;;9.20;8.30;;;14.40;99.90;;;;;;5055660;28;20511;-68
2022/04/26 09:49:25;;;;;;;9.00;8.10;;;14.80;99.90;;;;;;5053173;28;21418;-68
2022/04/26 09:51:56;;;;;;;9.50;7.67;;;15.20;99.90;;;;;;5052395;28;20188;-69
2022/04/26 09:54:22;;;;;;;7.40;6.80;;;15.30;99.90;;;;;;5055650;28;20452;-70
2022/04/26 09:56:49;;;;;;;7.60;6.90;;;15.30;99.90;;;;;;5031278;28;20442;-67
2022/04/26 09:59:24;;;;;;;7.63;6.13;;;15.30;99.90;;;;;;5053431;28;20419;-69
2022/04/26 10:01:52;;;;;;;7.80;7.10;;;15.40;99.90;;;;;;5055635;28;20457;-70
2022/04/26 10:04:20;;;;;;;8.40;7.27;;;15.50;99.90;;;;;;5061756;28;20466;-67
2022/04/26 10:06:52;;;;;;;7.13;6.53;;;15.50;99.90;;;;;;5053675;28;20420;-69
2022/04/26 10:09:18;;;;;;;7.73;6.93;;;15.60;99.90;;;;;;5052395;28;20799;-68
2022/04/26 10:11:44;;;;;;;7.90;7.20;;;15.50;99.90;;;;;;5052180;28;20423;-68
2022/04/26 10:14:11;;;;;;;8.80;7.07;;;15.60;99.90;;;;;;5052483;28;20433;-69
2022/04/26 10:16:38;;;;;;;7.27;6.60;;;15.40;99.90;;;;;;5030392;28;20258;-69
2022/04/26 10:19:12;;;;;;;7.23;6.63;;;15.60;99.90;;;;;;5055066;28;20437;-69
2022/04/26 10:21:38;;;;;;;6.97;6.27;;;15.40;99.90;;;;;;5050146;28;20830;-67
2022/04/26 10:24:21;;;;;;;8.97;5.87;;;15.50;99.90;;;;;;5064812;22;20483;-76
2022/04/26 10:26:47;;;;;;;6.93;6.23;;;15.70;99.90;;;;;;5063794;28;20450;-73
2022/04/26 10:29:16;;;;;;;7.00;6.40;;;15.50;99.90;;;;;;5063804;28;20963;-77
2022/04/26 10:31:43;;;;;;;7.17;6.50;;;15.50;99.90;;;;;;5065587;28;20400;-75
2022/04/26 10:34:27;;;;;;;7.03;6.30;;;15.50;99.90;;;;;;5064219;28;20461;-74
2022/04/26 10:36:56;;;;;;;6.57;5.90;;;15.80;99.90;;;;;;5046447;28;20524;-76
2022/04/26 10:39:33;;;;;;;6.37;5.70;;;15.90;99.90;;;;;;5064212;28;20418;-76
2022/04/26 10:42:01;;;;;;;6.87;6.27;;;16.30;99.90;;;;;;5064946;28;20405;-76
2022/04/26 10:44:31;;;;;;;6.50;5.97;;;16.50;99.60;;;;;;5064106;28;20467;-73
2022/04/26 10:47:03;;;;;;;6.23;5.73;;;16.20;99.90;;;;;;5064889;28;20513;-72
2022/04/26 10:49:35;;;;;;;9.10;5.80;;;16.20;99.30;;;;;;5046677;28;20432;-77
2022/04/26 10:52:22;;;;;;;6.40;5.80;;;16.10;98.80;;;;;;5046696;28;20429;-76
2022/04/26 10:55:02;;;;;;;6.00;5.40;;;16.30;98.20;;;;;;5064228;28;20463;-76
2022/04/26 10:57:39;;;;;;;5.53;5.03;;;16.90;98.00;;;;;;5045890;28;20559;-74
2022/04/26 11:00:21;;;;;;;6.27;5.70;;;17.10;97.70;;;;;;5063422;28;20414;-75
2022/04/26 11:02:49;;;;;;;7.23;5.80;;;16.30;97.80;;;;;;5063636;28;20408;-72
2022/04/26 11:05:27;;;;;;;6.40;5.73;;;16.10;99.60;;;;;;5063634;28;20453;-77
2022/04/26 11:07:55;;;;;;;5.43;5.03;;;16.70;99.40;;;;;;5063728;28;20405;-73
2022/04/26 11:10:22;;;;;;;5.43;4.93;;;17.60;95.40;;;;;;5063434;28;20540;-76
2022/04/26 11:12:50;;;;;;;5.63;5.13;;;17.50;94.80;;;;;;5064639;28;20419;-76
2022/04/26 11:15:19;;;;;;;5.93;4.70;;;17.10;95.80;;;;;;5046822;28;21116;-76
2022/04/26 11:17:45;;;;;;;4.73;4.30;;;17.20;95.40;;;;;;5064922;28;20563;-77
2022/04/26 11:20:17;;;;;;;4.60;4.20;;;17.10;94.50;;;;;;5065788;28;20429;-77
2022/04/26 11:22:55;;;;;;;7.30;6.60;;;17.10;94.00;;;;;;5068321;28;20405;-75
2022/04/26 11:28:12;;;;;;;12.33;8.67;;;15.30;99.90;;;;;;5067933;28;20433;-76
2022/04/26 11:30:40;;;;;;;10.53;9.23;;;14.30;99.90;;;;;;5049327;28;20870;-76
2022/04/26 11:33:22;;;;;;;10.70;9.60;;;14.00;99.90;;;;;;5048939;28;20415;-76
2022/04/26 11:35:57;;;;;;;9.10;8.30;;;14.20;99.90;;;;;;5048062;28;20417;-76
2022/04/26 11:38:24;;;;;;;8.53;7.90;;;15.80;99.90;;;;;;5067288;28;20960;-76
2022/04/26 11:41:00;;;;;;;8.53;7.63;;;17.20;99.90;;;;;;5067152;28;20935;-77
2022/04/26 11:43:31;;;;;;;9.17;8.33;;;18.30;99.00;;;;;;5049029;28;20412;-77
2022/04/26 11:45:58;;;;;;;9.60;8.70;;;17.50;99.20;;;;;;5066803;28;20450;-77
2022/04/26 11:48:29;;;;;;;9.03;8.10;;;15.90;99.90;;;;;;5048488;28;20840;-74
2022/04/26 11:50:56;;;;;;;8.70;7.90;;;15.00;99.90;;;;;;5066896;28;20425;-74
2022/04/26 11:53:27;;;;;;;8.97;8.17;;;14.40;99.90;;;;;;5048170;28;21013;-75
2022/04/26 11:55:57;;;;;;;8.67;7.07;;;14.40;99.90;;;;;;5066556;28;20665;-76
2022/04/26 11:58:26;;;;;;;10.10;7.30;;;14.30;99.90;;;;;;5066285;28;20445;-76
2022/04/26 12:00:52;;;;;;;8.13;7.37;;;14.20;99.90;;;;;;5066195;28;20963;-75
2022/04/26 12:03:19;;;;;;;7.87;7.17;;;14.10;99.90;;;;;;5049269;28;20496;-76
2022/04/26 12:05:49;;;;;;;8.90;8.00;;;14.20;99.90;;;;;;5048767;28;20250;-73
2022/04/26 12:08:15;;;;;;;6.87;6.27;;;14.80;99.90;;;;;;5067574;28;20934;-77
2022/04/26 12:10:41;;;;;;;6.60;5.67;;;16.00;99.90;;;;;;5067995;28;20851;-73
2022/04/26 12:13:07;;;;;;;6.30;5.77;;;17.10;99.40;;;;;;5067657;28;20484;-76
2022/04/26 12:15:36;;;;;;;6.27;5.70;;;16.60;97.20;;;;;;5067336;28;20430;-73
2022/04/26 12:18:07;;;;;;;6.00;5.50;;;16.20;99.00;;;;;;5068379;28;20421;-75
2022/04/26 12:20:37;;;;;;;6.40;5.90;;;16.00;98.80;;;;;;5048388;28;20427;-74
2022/04/26 12:23:04;;;;;;;7.47;6.77;;;15.90;99.10;;;;;;5067582;28;20418;-77
2022/04/26 12:25:30;;;;;;;6.63;5.90;;;15.30;98.90;;;;;;5067610;28;21042;-76
2022/04/26 12:28:07;;;;;;;6.90;6.20;;;15.00;99.90;;;;;;5068139;28;20498;-76
2022/04/26 12:30:34;;;;;;;7.07;6.47;;;14.80;99.90;;;;;;5068588;28;21338;-74
2022/04/26 12:33:00;;;;;;;6.40;5.73;;;14.70;99.90;;;;;;5072014;28;20904;-76
2022/04/26 12:35:26;;;;;;;7.50;6.63;;;14.80;99.90;;;;;;5056208;28;20449;-74
2022/04/26 12:38:09;;;;;;;8.17;7.47;;;14.60;99.90;;;;;;5075287;28;20185;-75
2022/04/26 12:40:36;;;;;;;8.10;7.30;;;14.40;99.90;;;;;;5069656;28;20423;-76
2022/04/26 12:43:02;;;;;;;9.43;8.53;;;14.20;99.90;;;;;;5035103;28;20756;-74
2022/04/26 12:45:28;;;;;;;6.70;5.97;;;13.80;99.90;;;;;;5074823;28;20548;-76
2022/04/26 12:51:12;;;;;;;4.37;3.97;;;12.90;99.90;;;;;;5068278;28;20204;-75
2022/04/26 12:53:38;;;;;;;5.03;4.50;;;12.70;99.90;;;;;;5066026;28;20430;-74
2022/04/26 12:56:11;;;;;;;5.00;4.50;;;12.30;99.90;;;;;;5066213;28;20473;-76
2022/04/26 12:58:39;;;;;;;6.17;4.50;;;12.20;99.90;;;;;;5066358;28;20444;-77
2022/04/26 13:01:06;;;;;;;4.67;4.23;;;12.30;99.90;;;;;;5066409;28;20487;-75
2022/04/26 13:03:32;;;;;;;4.60;3.77;;;12.40;99.90;;;;;;5065583;28;20432;-74
2022/04/26 13:06:08;;;;;;;5.53;4.00;;;12.00;99.90;;;;;;5064620;28;20462;-74
2022/04/26 13:08:35;;;;;;;4.93;3.90;;;11.90;99.90;;;;;;5065197;28;20404;-76
2022/04/26 13:11:00;;;;;;;4.17;3.87;;;11.80;99.90;;;;;;5065979;28;20427;-77
2022/04/26 13:13:29;;;;;;;4.30;3.90;;;12.10;99.90;;;;;;5054509;28;20943;-77
2022/04/26 13:15:54;;;;;;;4.40;4.03;;;12.20;99.90;;;;;;5053497;28;20181;-77
2022/04/26 13:18:20;;;;;;;4.67;4.30;;;12.30;99.90;;;;;;5069515;28;20535;-77
2022/04/26 13:20:46;;;;;;;4.53;4.13;;;12.30;99.90;;;;;;5065187;28;20184;-77
2022/04/26 13:23:13;;;;;;;7.03;4.80;;;12.90;99.90;;;;;;5066041;28;20185;-76
2022/04/26 13:25:38;;;;;;;5.50;3.73;;;13.40;99.90;;;;;;5066487;28;20551;-76
2022/04/26 13:28:05;;;;;;;4.60;4.10;;;14.00;99.90;;;;;;5066374;28;20505;-76
2022/04/26 13:30:31;;;;;;;3.90;3.37;;;15.30;99.90;;;;;;5048576;28;20181;-76
2022/04/26 13:32:57;;;;;;;3.23;3.03;;;17.00;99.90;;;;;;5049341;28;20896;-75
2022/04/26 13:35:25;;;;;;;3.80;3.27;;;19.00;99.90;;;;;;5047912;28;20209;-72
2022/04/26 13:37:52;;;;;;;3.40;3.07;;;21.00;96.60;;;;;;5065261;28;20174;-75
2022/04/26 13:40:18;;;;;;;3.30;3.10;;;22.40;93.70;;;;;;5065120;28;20396;-72
2022/04/26 13:42:44;;;;;;;3.13;2.83;;;20.80;94.60;;;;;;5065118;28;20466;-75
2022/04/26 13:45:10;;;;;;;3.53;2.90;;;19.20;96.90;;;;;;5064713;28;20936;-76
2022/04/26 13:47:36;;;;;;;5.70;3.37;;;19.60;95.40;;;;;;5064744;28;20416;-73
2022/04/26 13:50:05;;;;;;;2.67;2.47;;;19.90;91.90;;;;;;5064772;28;20205;-75
2022/04/26 13:52:30;;;;;;;3.30;3.00;;;20.60;92.20;;;;;;5065024;28;20474;-76
2022/04/26 13:54:56;;;;;;;3.40;3.03;;;20.80;90.50;;;;;;5064397;28;20436;-76
2022/04/26 13:57:22;;;;;;;2.27;2.17;;;20.40;91.30;;;;;;5046732;28;20182;-77
2022/04/26 13:59:47;;;;;;;3.43;2.83;;;20.90;90.10;;;;;;5064558;28;20174;-76
2022/04/26 14:02:13;;;;;;;4.43;2.23;;;19.80;89.20;;;;;;5064953;28;20184;-75
2022/04/26 14:04:39;;;;;;;2.40;2.20;;;19.10;90.70;;;;;;5064764;28;20202;-76
2022/04/26 14:07:06;;;;;;;2.40;2.20;;;20.10;90.00;;;;;;5064990;28;20188;-76
2022/04/26 14:09:32;;;;;;;2.33;2.03;;;21.80;87.10;;;;;;5064793;28;20781;-77
2022/04/26 14:11:57;;;;;;;2.67;2.47;;;21.90;79.00;;;;;;5063769;28;20423;-77
2022/04/26 14:22:37;;;;;;;2.20;1.90;;;23.80;73.50;;;;;;5064743;28;20411;-76
2022/04/26 14:25:08;;;;;;;2.70;2.50;;;23.90;77.00;;;;;;5064570;28;20972;-76
2022/04/26 14:27:35;;;;;;;2.90;2.70;;;22.60;73.20;;;;;;5064379;28;20166;-73
2022/04/26 14:30:02;;;;;;;3.27;3.00;;;21.30;77.30;;;;;;5066403;28;20797;-78
2022/04/26 14:32:28;;;;;;;3.50;3.20;;;19.50;82.40;;;;;;5048800;28;20426;-78
2022/04/26 14:34:53;;;;;;;3.50;3.20;;;18.30;86.00;;;;;;5048789;28;20432;-77
2022/04/26 14:37:19;;;;;;;4.07;3.53;;;17.50;87.20;;;;;;5065933;28;20196;-77
2022/04/26 14:39:45;;;;;;;3.93;3.60;;;16.70;90.30;;;;;;5065607;28;20412;-78
2022/04/26 14:42:11;;;;;;;3.73;3.43;;;16.60;91.40;;;;;;5047212;28;20218;-77
2022/04/26 14:44:37;;;;;;;3.40;3.10;;;16.40;91.60;;;;;;5065530;28;20470;-76
2022/04/26 14:47:03;;;;;;;3.70;3.40;;;16.00;93.00;;;;;;5065447;28;20179;-76
2022/04/26 14:49:30;;;;;;;3.80;3.50;;;16.40;93.50;;;;;;5065056;28;20415;-77
2022/04/26 14:51:56;;;;;;;3.50;3.20;;;18.10;92.30;;;;;;5067945;28;20412;-76
2022/04/26 14:54:22;;;;;;;3.47;3.17;;;19.80;89.10;;;;;;5070562;28;20538;-77
2022/04/26 14:56:48;;;;;;;4.77;2.63;;;20.10;85.30;;;;;;5070698;28;20557;-75
2022/04/26 14:59:18;;;;;;;5.10;2.70;;;21.40;81.60;;;;;;5069389;28;20416;-76
2022/04/26 15:01:49;;;;;;;3.57;3.27;;;22.00;82.00;;;;;;5068377;28;20270;-77
2022/04/26 15:04:16;;;;;;;3.30;3.00;;;22.90;75.90;;;;;;5068601;28;20459;-77
2022/04/26 15:06:43;;;;;;;2.80;2.60;;;22.70;75.60;;;;;;5067700;28;20404;-74
2022/04/26 15:16:37;;;;;;;5.10;3.60;;;21.50;75.70;;;;;;5067446;28;20399;-75
2022/04/26 15:17:24;;;;;;;4.60;3.70;;;17.80;84.10;;;;;;5067845;28;20435;-76
2022/04/26 15:19:51;;;;;;;4.17;3.77;;;17.60;87.70;;;;;;5066578;28;20428;-75
2022/04/26 15:22:18;;;;;;;3.97;3.30;;;17.10;90.20;;;;;;5067020;28;20178;-74
2022/04/26 15:24:47;;;;;;;3.90;3.60;;;17.00;90.30;;;;;;5048895;28;20468;-75
2022/04/26 15:27:17;;;;;;;3.90;3.60;;;16.70;90.60;;;;;;5066792;28;20787;-77
2022/04/26 15:29:44;;;;;;;3.50;3.20;;;16.50;91.80;;;;;;5049476;28;20419;-76
2022/04/26 15:32:11;;;;;;;4.60;3.70;;;16.30;91.90;;;;;;5067530;28;20418;-77
2022/04/26 15:34:37;;;;;;;4.20;3.80;;;16.10;92.60;;;;;;5068423;28;20794;-72
2022/04/26 15:37:03;;;;;;;4.10;3.77;;;15.90;92.90;;;;;;5049123;28;20429;-76
2022/04/26 15:39:29;;;;;;;4.83;4.27;;;15.50;93.30;;;;;;5048469;28;20433;-75
2022/04/26 15:41:56;;;;;;;5.00;4.43;;;14.90;95.10;;;;;;5067342;28;20914;-77
2022/04/26 15:44:22;;;;;;;4.23;3.93;;;14.60;98.60;;;;;;5067717;28;20254;-74
2022/04/26 15:46:50;;;;;;;4.60;3.70;;;14.30;99.90;;;;;;5049748;28;20933;-72
2022/04/26 15:49:19;;;;;;;5.10;4.70;;;13.70;99.90;;;;;;5067381;28;20195;-76
2022/04/26 15:51:44;;;;;;;6.40;5.90;;;13.40;99.90;;;;;;5067384;28;20416;-77
2022/04/26 15:54:10;;;;;;;5.60;4.70;;;13.50;99.90;;;;;;5068623;28;20446;-76
2022/04/26 15:56:36;;;;;;;4.77;4.33;;;13.20;99.90;;;;;;5071241;28;20279;-77
2022/04/26 15:59:02;;;;;;;4.40;4.00;;;13.30;99.90;;;;;;5053612;28;20188;-77
2022/04/26 16:01:28;;;;;;;3.87;3.03;;;14.00;99.90;;;;;;5053299;28;20964;-74
2022/04/26 16:03:54;;;;;;;3.43;3.00;;;15.30;99.90;;;;;;5071938;28;20433;-74
2022/04/26 16:06:20;;;;;;;3.73;3.37;;;15.50;99.90;;;;;;5070039;28;20890;-76
2022/04/26 16:08:46;;;;;;;4.10;3.70;;;15.70;99.90;;;;;;5070418;28;20413;-77
2022/04/26 16:22:16;;;;;;;4.40;4.00;;;16.30;99.90;;;;;;5066385;28;20392;-71
2022/04/26 16:24:41;;;;;;;9.33;7.17;;;16.20;99.90;;;;;;5095296;22;20469;-72
2022/04/26 16:27:08;;;;;;;33.20;22.63;;;15.60;99.90;;;;;;5106213;28;20433;-68
2022/04/26 16:29:34;;;;;;;66.20;45.00;;;15.10;99.90;;;;;;5107978;28;20174;-68
2022/04/26 16:32:00;;;;;;;13.70;12.27;;;14.80;99.90;;;;;;5107402;28;20436;-67
2022/04/26 16:34:25;;;;;;;5.10;4.60;;;14.50;99.90;;;;;;5107553;28;20419;-68
2022/04/26 16:36:51;;;;;;;5.37;4.97;;;14.00;99.90;;;;;;5107377;28;20427;-71
2022/04/26 16:39:17;;;;;;;4.70;4.30;;;13.90;99.90;;;;;;5106478;28;20398;-69
2022/04/26 16:41:43;;;;;;;11.07;10.07;;;14.00;99.90;;;;;;5106517;28;20189;-71
2022/04/26 16:44:08;;;;;;;3.67;3.20;;;13.90;99.90;;;;;;5106956;28;20202;-73
2022/04/26 16:46:35;;;;;;;22.23;20.23;;;13.70;99.90;;;;;;5107043;28;20202;-70
2022/04/26 16:49:03;;;;;;;11.57;10.30;;;13.60;99.90;;;;;;5107279;28;20193;-71
2022/04/26 16:51:30;;;;;;;3.83;3.53;;;13.30;99.90;;;;;;5107461;28;20415;-72
2022/04/26 16:53:57;;;;;;;3.60;3.30;;;13.30;99.90;;;;;;5107512;28;20567;-70
2022/04/26 16:56:22;;;;;;;4.13;2.80;;;13.10;99.90;;;;;;5106623;28;20442;-69
2022/04/26 16:58:48;;;;;;;5.93;5.43;;;12.70;99.90;;;;;;5107492;28;20487;-71
2022/04/26 17:01:14;;;;;;;3.43;3.13;;;12.70;99.90;;;;;;5107096;28;20176;-72